TimeEDT,TemperatureF,Dew PointF,Humidity,Sea Level PressureIn,VisibilityMPH,Wind Direction,Wind SpeedMPH,Gust SpeedMPH,PrecipitationIn,Events,Conditions,WindDirDegrees,DateUTC
12:53 AM,77.0,66.9,71,30.05,10.0,SW,8.1,-,N/A,,Clear,220,2013-09-11 04:53:00
1:53 AM,73.0,66.9,81,30.05,10.0,South,6.9,-,N/A,,Clear,190,2013-09-11 05:53:00
2:53 AM,73.0,66.9,81,30.05,10.0,SSW,6.9,-,N/A,,Clear,200,2013-09-11 06:53:00
3:53 AM,73.0,66.9,81,30.04,10.0,SSW,5.8,-,N/A,,Clear,210,2013-09-11 07:53:00
4:53 AM,70.0,66.0,87,30.05,9.0,SSW,4.6,-,N/A,,Clear,200,2013-09-11 08:53:00
5:53 AM,72.0,66.0,81,30.05,9.0,SW,6.9,-,N/A,,Clear,220,2013-09-11 09:53:00
6:53 AM,73.0,66.0,79,30.06,9.0,SW,8.1,-,N/A,,Clear,220,2013-09-11 10:53:00
7:53 AM,73.9,66.9,79,30.07,8.0,SW,6.9,-,N/A,,Clear,230,2013-09-11 11:53:00
8:53 AM,77.0,68.0,74,30.07,9.0,SW,8.1,-,0.00,,Partly Cloudy,230,2013-09-11 12:53:00
9:53 AM,78.1,69.1,74,30.09,9.0,SW,8.1,-,N/A,,Mostly Cloudy,220,2013-09-11 13:53:00
10:53 AM,84.0,70.0,63,30.07,9.0,WSW,10.4,-,N/A,,Clear,240,2013-09-11 14:53:00
11:53 AM,89.1,70.0,53,30.05,10.0,WSW,9.2,-,N/A,,Clear,240,2013-09-11 15:53:00
12:53 PM,91.0,66.9,45,30.03,10.0,West,8.1,-,N/A,,Clear,270,2013-09-11 16:53:00
1:53 PM,93.0,64.9,39,30.01,10.0,WSW,10.4,19.6,N/A,,Clear,240,2013-09-11 17:53:00
2:53 PM,91.0,62.1,38,29.99,10.0,West,11.5,20.7,N/A,,Scattered Clouds,260,2013-09-11 18:53:00
3:53 PM,93.0,60.1,33,29.96,10.0,West,12.7,20.7,N/A,,Clear,260,2013-09-11 19:53:00
4:53 PM,93.9,61.0,33,29.95,10.0,West,10.4,-,N/A,,Mostly Cloudy,260,2013-09-11 20:53:00
5:53 PM,91.9,61.0,35,29.94,10.0,WSW,15.0,18.4,N/A,,Clear,250,2013-09-11 21:53:00
6:53 PM,90.0,62.1,39,29.94,10.0,WSW,10.4,-,N/A,,Partly Cloudy,240,2013-09-11 22:53:00
7:53 PM,84.9,61.0,44,29.94,10.0,WSW,8.1,-,N/A,,Clear,240,2013-09-11 23:53:00
8:53 PM,81.0,61.0,50,29.96,10.0,WSW,5.8,-,N/A,,Clear,240,2013-09-12 00:53:00
9:53 PM,77.0,64.9,66,29.98,10.0,North,4.6,-,N/A,,Clear,10,2013-09-12 01:53:00
10:53 PM,73.0,66.0,79,29.96,10.0,SSE,3.5,-,N/A,,Scattered Clouds,150,2013-09-12 02:53:00
11:53 PM,73.9,66.0,76,29.96,10.0,East,3.5,-,N/A,,Clear,90,2013-09-12 03:53:00